Charlevoix, MI (49720)

11:03 AM EDT on August 29, 2015 (GMT -0400)
1.5 W Ironton | | Change Station
CLOSE
Current Station
Personal Weather Station
Location: Charlevoix, MI
Elevation: 750 ft
Nearby Weather Stations

Elev 750 ft 45.26 °N, 85.22 °W | Updated 5 seconds ago

Overcast
Overcast
61.5 °F
Feels Like 61.5 °F
N
0.0
Wind Variable Wind from West
Gusts 0.0 mph

Today
High -- | Low -- °F
--% Chance of Precip.
Yesterday
High -- | Low -- °F
Precip. -- in
6:58 AM 8:24 PM
Full, 100% visible
Pressure 30.13 in
Visibility 10.0 miles
Clouds Mostly Cloudy 4300 ft
Overcast 5000 ft
Dew Point 58 °F
Humidity 89%
Rainfall 0.25 in
Snow Depth Not available.
UV 2 out of 12
Pollen 9.00 out of 12
Air Quality Not available.
Flu Activity Not available.
METAR KCVX 291455Z AUTO 00000KT 10SM BKN043 OVC050 17/16 A3013 RMK AO2 T01700161
Pressure 30.13 in
Visibility 10.0 miles
Clouds Mostly Cloudy 4300 ft
Overcast 5000 ft
Dew Point 58 °F
Humidity 89%
Rainfall 0.25 in
Snow Depth Not available.
UV 2 out of 12
Pollen 9.00 out of 12
Air Quality Not available.
Flu Activity Not available.
METAR KCVX 291455Z AUTO 00000KT 10SM BKN043 OVC050 17/16 A3013 RMK AO2 T01700161
Nowcast | as of 11:00 am EDT on August 29, 2015

At 12 PM...mostly cloudy. Scattered showers. Temperature 66. Southwest winds 7 mph. At 2 PM...cloudy. Scattered showers. Temperature 69. Southwest winds 8 mph. At 4 PM...mostly cloudy. Scattered showers. Temperature 69. West winds 8 mph. At 6 PM...mostly cloudy. Scattered showers. Temperature 68. West winds 7 mph.

×

10-Day Weather Forecast

×

Almanac

Astronomy

Aug. 29, 2015 Rise Set
Actual Time
Civil Twilight
Nautical Twilight
Astronomical Twilight
Moon
Length of Visible Light
Length of Day
Tomorrow will be .
, % of the Moon is Illuminated

Today's Extremes

State Highs State Lows

Community

WunderPhotos

Upload Photos

1,850,684 photos uploaded!

WunderBlogs® & News

Nearby

Air Quality

  Air Quality AQ Index Pollutant
Not available.

Snow Depth

Station Depth Elevation

Earthquake Activity

City Distance Mag. Time & Date
Minimum magnitude displayed is 2.5.

Coastal Water Temperatures

Place Temperature

Stations

Nearby Weather Stations

Station Location Temp. Windchill Dew Point Humidity Wind Precip. Elev Updated Type